createdAt,value
2018-05-12T00:00:01.999Z,1006.83
2018-05-12T00:01:02.060Z,1006.79
2018-05-12T00:02:01.995Z,1006.80
2018-05-12T00:03:02.006Z,1006.83
2018-05-12T00:04:02.067Z,1006.82
2018-05-12T00:05:02.064Z,1006.81
2018-05-12T00:06:02.000Z,1006.84
2018-05-12T00:07:02.078Z,1006.84
2018-05-12T00:08:02.070Z,1006.81
2018-05-12T00:09:02.025Z,1006.84
2018-05-12T00:10:02.023Z,1006.85
2018-05-12T00:11:02.073Z,1006.83
2018-05-12T00:12:02.044Z,1006.86
2018-05-12T00:13:02.131Z,1006.80
2018-05-12T00:14:02.025Z,1006.82
2018-05-12T00:15:02.198Z,1006.85
2018-05-12T00:16:02.043Z,1006.84
2018-05-12T00:17:01.975Z,1006.82
2018-05-12T00:18:02.107Z,1006.83
2018-05-12T00:19:01.988Z,1006.83
2018-05-12T00:20:01.997Z,1006.78
2018-05-12T00:21:02.007Z,1006.80
2018-05-12T00:22:02.065Z,1006.75
2018-05-12T00:23:02.070Z,1006.79
2018-05-12T00:24:02.038Z,1006.73
2018-05-12T00:25:02.068Z,1006.76
2018-05-12T00:26:01.999Z,1006.75
2018-05-12T00:27:01.996Z,1006.73
2018-05-12T00:28:01.979Z,1006.72
2018-05-12T00:29:02.065Z,1006.76
2018-05-12T00:30:02.081Z,1006.73
2018-05-12T00:31:02.071Z,1006.70
2018-05-12T00:32:02.091Z,1006.71
2018-05-12T00:33:02.017Z,1006.74
2018-05-12T00:34:02.003Z,1006.73
2018-05-12T00:35:02.027Z,1006.73
2018-05-12T00:36:01.999Z,1006.73
2018-05-12T00:37:02.030Z,1006.72
2018-05-12T00:38:02.033Z,1006.72
2018-05-12T00:39:01.936Z,1006.69
2018-05-12T00:40:02.005Z,1006.71
2018-05-12T00:41:02.035Z,1006.72
2018-05-12T00:42:01.989Z,1006.72
2018-05-12T00:43:02.033Z,1006.71
2018-05-12T00:44:01.944Z,1006.74
2018-05-12T00:45:02.038Z,1006.71
2018-05-12T00:46:01.989Z,1006.71
2018-05-12T00:47:02.020Z,1006.70
2018-05-12T00:48:02.092Z,1006.69
2018-05-12T00:49:02.095Z,1006.69
2018-05-12T00:50:02.024Z,1006.68
2018-05-12T00:51:02.027Z,1006.62
2018-05-12T00:52:02.095Z,1006.64
2018-05-12T00:53:02.089Z,1006.63
2018-05-12T00:54:02.094Z,1006.63
2018-05-12T00:55:02.029Z,1006.64
2018-05-12T00:56:02.030Z,1006.60
2018-05-12T00:57:02.016Z,1006.66
2018-05-12T00:58:02.039Z,1006.61
2018-05-12T00:59:02.054Z,1006.63
2018-05-12T01:00:02.056Z,1006.59
2018-05-12T01:01:02.117Z,1006.61
2018-05-12T01:02:02.004Z,1006.62
2018-05-12T01:03:02.079Z,1006.56
2018-05-12T01:04:02.040Z,1006.60
2018-05-12T01:05:02.105Z,1006.57
2018-05-12T01:06:02.075Z,1006.59
2018-05-12T01:07:02.071Z,1006.60
2018-05-12T01:08:02.062Z,1006.62
2018-05-12T01:09:02.046Z,1006.58
2018-05-12T01:10:02.045Z,1006.60
2018-05-12T01:11:02.084Z,1006.58
2018-05-12T01:12:02.122Z,1006.58
2018-05-12T01:13:02.073Z,1006.56
2018-05-12T01:14:02.104Z,1006.53
2018-05-12T01:15:02.027Z,1006.52
2018-05-12T01:16:02.106Z,1006.49
2018-05-12T01:17:02.103Z,1006.51
2018-05-12T01:18:02.015Z,1006.50
2018-05-12T01:19:02.023Z,1006.49
2018-05-12T01:20:02.011Z,1006.51
2018-05-12T01:21:01.996Z,1006.50
2018-05-12T01:22:01.998Z,1006.51
2018-05-12T01:23:02.106Z,1006.50
2018-05-12T01:24:02.108Z,1006.52
2018-05-12T01:25:02.111Z,1006.52
2018-05-12T01:26:02.105Z,1006.51
2018-05-12T01:27:02.135Z,1006.51
2018-05-12T01:28:02.078Z,1006.51
2018-05-12T01:29:02.230Z,1006.53
2018-05-12T01:30:02.038Z,1006.51
2018-05-12T01:31:02.151Z,1006.52
2018-05-12T01:32:02.025Z,1006.51
2018-05-12T01:33:02.038Z,1006.49
2018-05-12T01:34:02.036Z,1006.51
2018-05-12T01:35:02.145Z,1006.49
2018-05-12T01:36:02.118Z,1006.51
2018-05-12T01:37:02.061Z,1006.52
2018-05-12T01:38:02.059Z,1006.53
2018-05-12T01:39:02.056Z,1006.49
2018-05-12T01:40:02.134Z,1006.56
2018-05-12T01:41:02.061Z,1006.53
2018-05-12T01:42:02.126Z,1006.57
2018-05-12T01:43:02.126Z,1006.56
2018-05-12T01:44:02.064Z,1006.51
2018-05-12T01:45:02.133Z,1006.54
2018-05-12T01:46:02.096Z,1006.56
2018-05-12T01:47:02.047Z,1006.58
2018-05-12T01:48:02.090Z,1006.54
2018-05-12T01:49:02.164Z,1006.59
2018-05-12T01:50:02.162Z,1006.56
2018-05-12T01:51:02.083Z,1006.58
2018-05-12T01:52:02.048Z,1006.58
2018-05-12T01:53:02.110Z,1006.58
2018-05-12T01:54:02.097Z,1006.57
2018-05-12T01:55:02.135Z,1006.60
2018-05-12T01:56:02.131Z,1006.61
2018-05-12T01:57:02.128Z,1006.60
2018-05-12T01:58:02.128Z,1006.60
2018-05-12T01:59:02.124Z,1006.59
2018-05-12T02:00:02.055Z,1006.61
2018-05-12T02:01:02.063Z,1006.60
2018-05-12T02:02:02.028Z,1006.64
2018-05-12T02:03:02.040Z,1006.64
2018-05-12T02:04:02.075Z,1006.65
2018-05-12T02:05:02.057Z,1006.64
2018-05-12T02:06:02.128Z,1006.63
2018-05-12T02:07:02.074Z,1006.66
2018-05-12T02:08:02.149Z,1006.65
2018-05-12T02:09:02.145Z,1006.69
2018-05-12T02:10:02.243Z,1006.70
2018-05-12T02:11:02.143Z,1006.67
2018-05-12T02:12:02.076Z,1006.65
2018-05-12T02:13:02.148Z,1006.65
2018-05-12T02:14:02.079Z,1006.66
2018-05-12T02:15:02.148Z,1006.68
2018-05-12T02:16:02.087Z,1006.69
2018-05-12T02:17:02.148Z,1006.68
2018-05-12T02:18:02.082Z,1006.71
2018-05-12T02:19:02.147Z,1006.68
2018-05-12T02:20:02.161Z,1006.72
2018-05-12T02:21:02.150Z,1006.77
2018-05-12T02:22:02.148Z,1006.77
2018-05-12T02:23:02.147Z,1006.76
2018-05-12T02:24:02.089Z,1006.76
2018-05-12T02:25:02.157Z,1006.75
2018-05-12T02:26:02.152Z,1006.75
2018-05-12T02:27:02.156Z,1006.71
2018-05-12T02:28:02.151Z,1006.73
2018-05-12T02:29:02.154Z,1006.74
2018-05-12T02:30:02.076Z,1006.70
2018-05-12T02:31:02.131Z,1006.76
2018-05-12T02:32:02.117Z,1006.77
2018-05-12T02:33:02.129Z,1006.78
2018-05-12T02:34:02.191Z,1006.77
2018-05-12T02:35:02.127Z,1006.79
2018-05-12T02:36:02.132Z,1006.81
2018-05-12T02:37:02.182Z,1006.76
2018-05-12T02:38:02.181Z,1006.76
2018-05-12T02:39:02.221Z,1006.77
2018-05-12T02:40:02.160Z,1006.75
2018-05-12T02:41:02.171Z,1006.76
2018-05-12T02:42:02.085Z,1006.75
2018-05-12T02:43:02.084Z,1006.75
2018-05-12T02:44:02.136Z,1006.78
2018-05-12T02:45:02.147Z,1006.73
2018-05-12T02:46:02.318Z,1006.75
2018-05-12T02:47:02.163Z,1006.75
2018-05-12T02:48:02.097Z,1006.75
2018-05-12T02:49:02.160Z,1006.73
2018-05-12T02:50:02.119Z,1006.72
2018-05-12T02:51:02.184Z,1006.73
2018-05-12T02:52:02.089Z,1006.74
2018-05-12T02:53:02.161Z,1006.73
2018-05-12T02:54:02.075Z,1006.77
2018-05-12T02:55:02.159Z,1006.74
2018-05-12T02:56:02.073Z,1006.71
2018-05-12T02:57:02.171Z,1006.72
2018-05-12T02:58:02.219Z,1006.68
2018-05-12T02:59:02.189Z,1006.65
2018-05-12T03:00:02.157Z,1006.66
2018-05-12T03:01:02.095Z,1006.67
2018-05-12T03:02:02.113Z,1006.68
2018-05-12T03:03:02.080Z,1006.67
2018-05-12T03:04:02.159Z,1006.68
2018-05-12T03:05:02.200Z,1006.67
2018-05-12T03:06:02.133Z,1006.65
2018-05-12T03:07:02.101Z,1006.67
2018-05-12T03:08:02.137Z,1006.68
2018-05-12T03:09:02.101Z,1006.66
2018-05-12T03:10:02.146Z,1006.65
2018-05-12T03:11:02.100Z,1006.64
2018-05-12T03:12:02.219Z,1006.64
2018-05-12T03:13:02.140Z,1006.66
2018-05-12T03:14:02.221Z,1006.59
2018-05-12T03:15:02.221Z,1006.60
2018-05-12T03:16:02.220Z,1006.63
2018-05-12T03:17:02.184Z,1006.61
2018-05-12T03:18:02.120Z,1006.61
2018-05-12T03:19:02.184Z,1006.61
2018-05-12T03:20:02.192Z,1006.65
2018-05-12T03:21:02.119Z,1006.63
2018-05-12T03:22:02.191Z,1006.64
2018-05-12T03:23:02.119Z,1006.61
2018-05-12T03:24:02.124Z,1006.67
2018-05-12T03:25:02.152Z,1006.65
2018-05-12T03:26:02.126Z,1006.66
2018-05-12T03:27:02.114Z,1006.61
2018-05-12T03:28:02.232Z,1006.61
2018-05-12T03:29:02.169Z,1006.62
2018-05-12T03:30:02.233Z,1006.62
2018-05-12T03:31:02.185Z,1006.63
2018-05-12T03:32:02.201Z,1006.60
2018-05-12T03:33:02.136Z,1006.55
2018-05-12T03:34:02.215Z,1006.56
2018-05-12T03:35:02.196Z,1006.59
2018-05-12T03:36:02.195Z,1006.58
2018-05-12T03:37:02.228Z,1006.59
2018-05-12T03:38:02.113Z,1006.54
2018-05-12T03:39:02.102Z,1006.58
2018-05-12T03:40:02.175Z,1006.59
2018-05-12T03:41:02.218Z,1006.56
2018-05-12T03:42:02.162Z,1006.55
2018-05-12T03:43:02.159Z,1006.56
2018-05-12T03:44:02.235Z,1006.55
2018-05-12T03:45:02.239Z,1006.56
2018-05-12T03:46:02.121Z,1006.54
2018-05-12T03:47:02.207Z,1006.54
2018-05-12T03:48:02.220Z,1006.54
2018-05-12T03:49:02.207Z,1006.57
2018-05-12T03:50:02.142Z,1006.55
2018-05-12T03:51:02.150Z,1006.54
2018-05-12T03:52:02.224Z,1006.53
2018-05-12T03:53:02.149Z,1006.52
2018-05-12T03:54:02.210Z,1006.50
2018-05-12T03:55:02.207Z,1006.53
2018-05-12T03:56:02.143Z,1006.54
2018-05-12T03:57:02.065Z,1006.50
2018-05-12T03:58:02.141Z,1006.49
2018-05-12T03:59:02.070Z,1006.51
2018-05-12T04:00:02.213Z,1006.50
2018-05-12T04:01:02.195Z,1006.50
2018-05-12T04:02:02.140Z,1006.50
2018-05-12T04:03:02.100Z,1006.49
2018-05-12T04:04:02.076Z,1006.51
2018-05-12T04:05:02.107Z,1006.49
2018-05-12T04:06:02.145Z,1006.53
2018-05-12T04:07:02.097Z,1006.54
2018-05-12T04:08:02.221Z,1006.53
2018-05-12T04:09:02.288Z,1006.52
2018-05-12T04:10:02.221Z,1006.52
2018-05-12T04:11:02.186Z,1006.54
2018-05-12T04:12:02.221Z,1006.55
2018-05-12T04:13:02.149Z,1006.54
2018-05-12T04:14:02.151Z,1006.56
2018-05-12T04:15:02.220Z,1006.53
2018-05-12T04:16:02.156Z,1006.56
2018-05-12T04:17:02.228Z,1006.55
2018-05-12T04:18:02.224Z,1006.54
2018-05-12T04:19:02.167Z,1006.51
2018-05-12T04:20:02.233Z,1006.57
2018-05-12T04:21:02.191Z,1006.54
2018-05-12T04:22:02.227Z,1006.51
2018-05-12T04:23:02.181Z,1006.54
2018-05-12T04:24:02.224Z,1006.56
2018-05-12T04:25:02.166Z,1006.52
2018-05-12T04:26:02.160Z,1006.52
2018-05-12T04:27:02.304Z,1006.53
2018-05-12T04:28:02.204Z,1006.55
2018-05-12T04:29:02.209Z,1006.54
2018-05-12T04:30:02.262Z,1006.54
2018-05-12T04:31:02.244Z,1006.52
2018-05-12T04:32:02.261Z,1006.50
2018-05-12T04:33:02.207Z,1006.49
2018-05-12T04:34:02.200Z,1006.51
2018-05-12T04:35:02.164Z,1006.50
2018-05-12T04:36:02.262Z,1006.56
2018-05-12T04:37:02.267Z,1006.48
2018-05-12T04:38:02.214Z,1006.52
2018-05-12T04:39:02.267Z,1006.56
2018-05-12T04:40:02.208Z,1006.51
2018-05-12T04:41:02.254Z,1006.53
2018-05-12T04:42:02.271Z,1006.53
2018-05-12T04:43:02.258Z,1006.50
2018-05-12T04:44:02.192Z,1006.52
2018-05-12T04:45:02.199Z,1006.52
2018-05-12T04:46:02.199Z,1006.51
2018-05-12T04:47:02.260Z,1006.50
2018-05-12T04:48:02.250Z,1006.50
2018-05-12T04:49:02.260Z,1006.50
2018-05-12T04:50:02.243Z,1006.51
2018-05-12T04:51:02.177Z,1006.51
2018-05-12T04:52:02.242Z,1006.54
2018-05-12T04:53:02.176Z,1006.53
2018-05-12T04:54:02.250Z,1006.53
2018-05-12T04:55:02.248Z,1006.50
2018-05-12T04:56:02.245Z,1006.49
2018-05-12T04:57:02.179Z,1006.53
2018-05-12T04:58:02.286Z,1006.56
2018-05-12T04:59:02.215Z,1006.54
2018-05-12T05:00:02.223Z,1006.58
2018-05-12T05:01:02.224Z,1006.53
2018-05-12T05:02:02.309Z,1006.58
2018-05-12T05:03:02.283Z,1006.53
2018-05-12T05:04:02.206Z,1006.55
2018-05-12T05:05:02.156Z,1006.54
2018-05-12T05:06:02.277Z,1006.57
2018-05-12T05:07:02.217Z,1006.52
2018-05-12T05:08:02.222Z,1006.56
2018-05-12T05:09:02.189Z,1006.58
2018-05-12T05:10:02.272Z,1006.57
2018-05-12T05:11:02.160Z,1006.60
2018-05-12T05:12:02.193Z,1006.59
2018-05-12T05:13:02.257Z,1006.57
2018-05-12T05:14:02.270Z,1006.59
2018-05-12T05:15:02.262Z,1006.60
2018-05-12T05:16:02.194Z,1006.57
2018-05-12T05:17:02.193Z,1006.64
2018-05-12T05:18:02.257Z,1006.63
2018-05-12T05:19:02.198Z,1006.70
2018-05-12T05:20:02.263Z,1006.69
2018-05-12T05:21:02.267Z,1006.66
2018-05-12T05:22:02.195Z,1006.66
2018-05-12T05:23:02.268Z,1006.66
2018-05-12T05:24:02.268Z,1006.67
2018-05-12T05:25:02.198Z,1006.66
2018-05-12T05:26:02.278Z,1006.64
2018-05-12T05:27:02.234Z,1006.68
2018-05-12T05:28:02.212Z,1006.69
2018-05-12T05:29:02.243Z,1006.68
2018-05-12T05:30:02.268Z,1006.69
2018-05-12T05:31:02.268Z,1006.68
2018-05-12T05:32:02.270Z,1006.66
2018-05-12T05:33:02.201Z,1006.66
2018-05-12T05:34:02.307Z,1006.71
2018-05-12T05:35:02.211Z,1006.68
2018-05-12T05:36:02.382Z,1006.69
2018-05-12T05:37:02.293Z,1006.70
2018-05-12T05:38:02.255Z,1006.72
2018-05-12T05:39:02.257Z,1006.70
2018-05-12T05:40:02.275Z,1006.73
2018-05-12T05:41:02.312Z,1006.75
2018-05-12T05:42:02.220Z,1006.72
2018-05-12T05:43:02.308Z,1006.73
2018-05-12T05:44:02.194Z,1006.75
2018-05-12T05:45:02.240Z,1006.71
2018-05-12T05:46:02.301Z,1006.75
2018-05-12T05:47:02.300Z,1006.70
2018-05-12T05:48:02.261Z,1006.72
2018-05-12T05:49:02.280Z,1006.75
2018-05-12T05:50:02.255Z,1006.73
2018-05-12T05:51:02.248Z,1006.71
2018-05-12T05:52:02.299Z,1006.68
2018-05-12T05:53:02.285Z,1006.70
2018-05-12T05:54:02.306Z,1006.71
2018-05-12T05:55:02.187Z,1006.70
2018-05-12T05:56:02.265Z,1006.69
2018-05-12T05:57:02.326Z,1006.69
2018-05-12T05:58:02.234Z,1006.68
2018-05-12T05:59:02.189Z,1006.67
2018-05-12T06:00:02.261Z,1006.68
2018-05-12T06:01:02.272Z,1006.69
2018-05-12T06:02:02.247Z,1006.64
2018-05-12T06:03:02.311Z,1006.63
2018-05-12T06:04:02.194Z,1006.64
2018-05-12T06:05:02.238Z,1006.61
2018-05-12T06:06:02.234Z,1006.61
2018-05-12T06:07:02.361Z,1006.65
2018-05-12T06:08:02.351Z,1006.62
2018-05-12T06:09:02.298Z,1006.60
2018-05-12T06:10:02.239Z,1006.63
2018-05-12T06:11:02.329Z,1006.64
2018-05-12T06:12:02.218Z,1006.62
2018-05-12T06:13:02.340Z,1006.61
2018-05-12T06:14:02.240Z,1006.61
2018-05-12T06:15:02.262Z,1006.62
2018-05-12T06:16:02.348Z,1006.65
2018-05-12T06:17:02.302Z,1006.66
2018-05-12T06:18:02.303Z,1006.63
2018-05-12T06:19:02.241Z,1006.68
2018-05-12T06:20:02.264Z,1006.69
2018-05-12T06:21:02.330Z,1006.68
2018-05-12T06:22:02.304Z,1006.63
2018-05-12T06:23:02.307Z,1006.70
2018-05-12T06:24:02.228Z,1006.67
2018-05-12T06:25:02.331Z,1006.68
2018-05-12T06:26:02.307Z,1006.71
2018-05-12T06:27:02.262Z,1006.64
2018-05-12T06:28:02.286Z,1006.70
2018-05-12T06:29:02.230Z,1006.64
2018-05-12T06:30:02.330Z,1006.64
2018-05-12T06:31:02.306Z,1006.65
2018-05-12T06:32:02.308Z,1006.61
2018-05-12T06:33:02.307Z,1006.62
2018-05-12T06:34:02.311Z,1006.54
2018-05-12T06:35:02.276Z,1006.55
2018-05-12T06:36:02.344Z,1006.56
2018-05-12T06:37:02.231Z,1006.55
2018-05-12T06:38:02.259Z,1006.54
2018-05-12T06:39:02.345Z,1006.49
2018-05-12T06:40:02.287Z,1006.50
2018-05-12T06:41:02.291Z,1006.55
2018-05-12T06:42:02.361Z,1006.53
2018-05-12T06:43:02.290Z,1006.53
2018-05-12T06:44:02.315Z,1006.51
2018-05-12T06:45:02.292Z,1006.52
2018-05-12T06:46:02.345Z,1006.51
2018-05-12T06:47:02.336Z,1006.50
2018-05-12T06:48:02.250Z,1006.53
2018-05-12T06:49:02.352Z,1006.50
2018-05-12T06:50:02.388Z,1006.50
2018-05-12T06:51:02.321Z,1006.50
2018-05-12T06:52:02.325Z,1006.53
2018-05-12T06:53:02.261Z,1006.48
2018-05-12T06:54:02.322Z,1006.48
2018-05-12T06:55:02.345Z,1006.48
2018-05-12T06:56:02.294Z,1006.48
2018-05-12T06:57:02.290Z,1006.49
2018-05-12T06:58:02.336Z,1006.44
2018-05-12T06:59:02.393Z,1006.48
2018-05-12T07:00:02.249Z,1006.45
2018-05-12T07:01:02.247Z,1006.45
2018-05-12T07:02:02.367Z,1006.45
2018-05-12T07:03:02.301Z,1006.48
2018-05-12T07:04:02.337Z,1006.46
2018-05-12T07:05:02.329Z,1006.47
2018-05-12T07:06:02.369Z,1006.41
2018-05-12T07:07:02.331Z,1006.48
2018-05-12T07:08:02.362Z,1006.46
2018-05-12T07:09:02.355Z,1006.43
2018-05-12T07:10:02.301Z,1006.47
2018-05-12T07:11:02.309Z,1006.48
2018-05-12T07:12:02.334Z,1006.46
2018-05-12T07:13:02.319Z,1006.46
2018-05-12T07:14:02.358Z,1006.47
2018-05-12T07:15:02.300Z,1006.45
2018-05-12T07:16:02.258Z,1006.46
2018-05-12T07:17:02.372Z,1006.46
2018-05-12T07:18:02.425Z,1006.48
2018-05-12T07:19:02.274Z,1006.48
2018-05-12T07:20:02.355Z,1006.52
2018-05-12T07:21:02.274Z,1006.55
2018-05-12T07:22:02.349Z,1006.52
2018-05-12T07:23:02.343Z,1006.55
2018-05-12T07:24:02.280Z,1006.53
2018-05-12T07:25:02.344Z,1006.56
2018-05-12T07:26:02.344Z,1006.56
2018-05-12T07:27:02.274Z,1006.51
2018-05-12T07:28:02.365Z,1006.54
2018-05-12T07:29:02.374Z,1006.56
2018-05-12T07:30:02.366Z,1006.52
2018-05-12T07:31:02.287Z,1006.55
2018-05-12T07:32:02.366Z,1006.50
2018-05-12T07:33:02.309Z,1006.55
2018-05-12T07:34:02.264Z,1006.52
2018-05-12T07:35:02.255Z,1006.52
2018-05-12T07:36:02.310Z,1006.53
2018-05-12T07:37:02.269Z,1006.50
2018-05-12T07:38:02.316Z,1006.49
2018-05-12T07:39:02.388Z,1006.48
2018-05-12T07:40:02.382Z,1006.50
2018-05-12T07:41:02.328Z,1006.43
2018-05-12T07:42:02.338Z,1006.47
2018-05-12T07:43:02.279Z,1006.44
2018-05-12T07:44:02.353Z,1006.44
2018-05-12T07:45:02.407Z,1006.46
2018-05-12T07:46:02.297Z,1006.48
2018-05-12T07:47:02.325Z,1006.45
2018-05-12T07:48:02.334Z,1006.48
2018-05-12T07:49:02.323Z,1006.46
2018-05-12T07:50:02.280Z,1006.44
2018-05-12T07:51:02.263Z,1006.43
2018-05-12T07:52:02.357Z,1006.45
2018-05-12T07:53:02.285Z,1006.41
2018-05-12T07:54:02.401Z,1006.40
2018-05-12T07:55:02.397Z,1006.37
2018-05-12T07:56:02.390Z,1006.35
2018-05-12T07:57:02.485Z,1006.36
2018-05-12T07:58:02.391Z,1006.34
2018-05-12T07:59:02.366Z,1006.36
2018-05-12T08:00:02.363Z,1006.35
2018-05-12T08:01:02.362Z,1006.30
2018-05-12T08:02:02.396Z,1006.33
2018-05-12T08:03:02.307Z,1006.29
2018-05-12T08:04:02.365Z,1006.31
2018-05-12T08:05:02.369Z,1006.26
2018-05-12T08:06:02.392Z,1006.26
2018-05-12T08:07:02.328Z,1006.23
2018-05-12T08:08:02.371Z,1006.23
2018-05-12T08:09:02.374Z,1006.20
2018-05-12T08:10:02.369Z,1006.20
2018-05-12T08:11:02.404Z,1006.22
2018-05-12T08:12:02.297Z,1006.15
2018-05-12T08:13:02.311Z,1006.12
2018-05-12T08:14:02.318Z,1006.12
2018-05-12T08:15:02.421Z,1006.14
2018-05-12T08:16:02.398Z,1006.08
2018-05-12T08:17:02.331Z,1006.13
2018-05-12T08:18:02.166Z,1006.10
2018-05-12T08:19:02.234Z,1006.09
2018-05-12T08:20:02.175Z,1006.13
2018-05-12T08:21:02.168Z,1006.07
2018-05-12T08:22:02.161Z,1006.07
2018-05-12T08:23:02.171Z,1006.09
2018-05-12T08:24:02.191Z,1006.05
2018-05-12T08:25:02.195Z,1006.05
2018-05-12T08:26:02.306Z,1006.02
2018-05-12T08:27:02.167Z,1006.01
2018-05-12T08:28:02.319Z,1006.00
2018-05-12T08:29:02.389Z,1005.98
2018-05-12T08:30:02.384Z,1005.98
2018-05-12T08:31:02.314Z,1005.99
2018-05-12T08:32:02.316Z,1005.98
2018-05-12T08:33:02.390Z,1005.96
2018-05-12T08:34:02.320Z,1006.00
2018-05-12T08:35:02.392Z,1006.02
2018-05-12T08:36:02.321Z,1005.95
2018-05-12T08:37:02.287Z,1006.01
2018-05-12T08:38:02.411Z,1005.98
2018-05-12T08:39:02.413Z,1005.96
2018-05-12T08:40:02.399Z,1005.93
2018-05-12T08:41:02.418Z,1005.88
2018-05-12T08:42:02.354Z,1005.82
2018-05-12T08:43:02.359Z,1005.88
2018-05-12T08:44:02.315Z,1005.84
2018-05-12T08:45:02.367Z,1005.87
2018-05-12T08:46:02.356Z,1005.86
2018-05-12T08:47:02.367Z,1005.86
2018-05-12T08:48:02.438Z,1005.88
2018-05-12T08:49:02.430Z,1005.84
2018-05-12T08:50:02.343Z,1005.84
2018-05-12T08:51:02.439Z,1005.82
2018-05-12T08:52:02.320Z,1005.84
2018-05-12T08:53:02.426Z,1005.83
2018-05-12T08:54:02.345Z,1005.78
2018-05-12T08:55:02.442Z,1005.78
2018-05-12T08:56:02.428Z,1005.78
2018-05-12T08:57:02.403Z,1005.77
2018-05-12T08:58:02.343Z,1005.75
2018-05-12T08:59:02.308Z,1005.71
2018-05-12T09:00:02.285Z,1005.67
2018-05-12T09:01:02.406Z,1005.62
2018-05-12T09:02:02.327Z,1005.64
2018-05-12T09:03:02.335Z,1005.68
2018-05-12T09:04:02.375Z,1005.63
2018-05-12T09:05:02.398Z,1005.67
2018-05-12T09:06:02.405Z,1005.67
2018-05-12T09:07:02.398Z,1005.57
2018-05-12T09:08:02.338Z,1005.59
2018-05-12T09:09:02.430Z,1005.63
2018-05-12T09:10:02.384Z,1005.60
2018-05-12T09:11:02.370Z,1005.61
2018-05-12T09:12:02.313Z,1005.61
2018-05-12T09:13:02.489Z,1005.61
2018-05-12T09:14:02.417Z,1005.63
2018-05-12T09:15:02.319Z,1005.67
2018-05-12T09:16:02.385Z,1005.69
2018-05-12T09:17:02.395Z,1005.60
2018-05-12T09:18:02.396Z,1005.66
2018-05-12T09:19:02.395Z,1005.61
2018-05-12T09:20:02.441Z,1005.62
2018-05-12T09:21:02.388Z,1005.60
2018-05-12T09:22:02.415Z,1005.62
2018-05-12T09:23:02.418Z,1005.61
2018-05-12T09:24:02.455Z,1005.64
2018-05-12T09:25:02.417Z,1005.65
2018-05-12T09:26:02.395Z,1005.64
2018-05-12T09:27:02.397Z,1005.65
2018-05-12T09:28:02.390Z,1005.60
2018-05-12T09:29:02.402Z,1005.64
2018-05-12T09:30:02.393Z,1005.62
2018-05-12T09:31:02.421Z,1005.64
2018-05-12T09:32:02.380Z,1005.67
2018-05-12T09:33:02.447Z,1005.67
2018-05-12T09:34:02.397Z,1005.67
2018-05-12T09:35:02.464Z,1005.63
2018-05-12T09:36:02.427Z,1005.64
2018-05-12T09:37:02.403Z,1005.68
2018-05-12T09:38:02.463Z,1005.70
2018-05-12T09:39:02.424Z,1005.66
2018-05-12T09:40:02.424Z,1005.65
2018-05-12T09:41:02.299Z,1005.63
2018-05-12T09:42:02.425Z,1005.63
2018-05-12T09:43:02.357Z,1005.64
2018-05-12T09:44:02.336Z,1005.66
2018-05-12T09:45:02.373Z,1005.67
2018-05-12T09:46:02.390Z,1005.62
2018-05-12T09:47:02.423Z,1005.63
2018-05-12T09:48:02.334Z,1005.60
2018-05-12T09:49:02.357Z,1005.62
2018-05-12T09:50:02.459Z,1005.65
2018-05-12T09:51:02.460Z,1005.62
2018-05-12T09:52:02.455Z,1005.61
2018-05-12T09:53:02.436Z,1005.56
2018-05-12T09:54:02.474Z,1005.56
2018-05-12T09:55:02.481Z,1005.55
2018-05-12T09:56:02.500Z,1005.58
2018-05-12T09:57:02.421Z,1005.56
2018-05-12T09:58:02.406Z,1005.54
2018-05-12T09:59:02.363Z,1005.52
2018-05-12T10:00:02.472Z,1005.52
2018-05-12T10:01:02.403Z,1005.48
2018-05-12T10:02:02.411Z,1005.46
2018-05-12T10:03:02.453Z,1005.47
2018-05-12T10:04:02.413Z,1005.48
2018-05-12T10:05:02.483Z,1005.47
2018-05-12T10:06:02.355Z,1005.49
2018-05-12T10:07:02.377Z,1005.47
2018-05-12T10:08:02.404Z,1005.42
2018-05-12T10:09:02.354Z,1005.45
2018-05-12T10:10:02.412Z,1005.43
2018-05-12T10:11:02.448Z,1005.44
2018-05-12T10:12:02.424Z,1005.40
2018-05-12T10:13:02.387Z,1005.39
2018-05-12T10:14:02.415Z,1005.38
2018-05-12T10:15:02.372Z,1005.39
2018-05-12T10:16:02.371Z,1005.36
2018-05-12T10:17:02.416Z,1005.36
2018-05-12T10:18:02.357Z,1005.36
2018-05-12T10:19:02.491Z,1005.38
2018-05-12T10:20:02.378Z,1005.27
2018-05-12T10:21:02.518Z,1005.28
2018-05-12T10:23:02.493Z,1005.24
2018-05-12T10:24:02.384Z,1005.24
2018-05-12T10:25:02.500Z,1005.21
2018-05-12T10:26:02.401Z,1005.24
2018-05-12T10:27:02.381Z,1005.19
2018-05-12T10:28:02.398Z,1005.19
2018-05-12T10:29:02.460Z,1005.17
2018-05-12T10:30:02.489Z,1005.18
2018-05-12T10:31:02.438Z,1005.11
2018-05-12T10:32:02.493Z,1005.07
2018-05-12T10:33:02.461Z,1005.05
2018-05-12T10:34:02.439Z,1005.09
2018-05-12T10:35:02.431Z,1005.02
2018-05-12T10:36:02.430Z,1005.04
2018-05-12T10:37:02.470Z,1005.02
2018-05-12T10:38:02.501Z,1004.99
2018-05-12T10:39:02.386Z,1005.02
2018-05-12T10:40:02.503Z,1004.99
2018-05-12T10:41:02.442Z,1005.00
2018-05-12T10:42:02.530Z,1004.96
2018-05-12T10:43:02.455Z,1004.98
2018-05-12T10:44:02.476Z,1004.92
2018-05-12T10:45:02.455Z,1004.94
2018-05-12T10:46:02.400Z,1004.92
2018-05-12T10:47:02.396Z,1004.94
2018-05-12T10:48:02.434Z,1004.93
2018-05-12T10:49:02.443Z,1004.92
2018-05-12T10:50:02.519Z,1004.89
2018-05-12T10:51:02.504Z,1004.89
2018-05-12T10:52:02.397Z,1004.86
2018-05-12T10:53:02.502Z,1004.87
2018-05-12T10:54:02.397Z,1004.85
2018-05-12T10:55:02.504Z,1004.87
2018-05-12T10:56:02.452Z,1004.83
2018-05-12T10:57:02.455Z,1004.84
2018-05-12T10:58:02.523Z,1004.85
2018-05-12T10:59:02.391Z,1004.82
2018-05-12T11:00:02.518Z,1004.86
2018-05-12T11:01:02.403Z,1004.88
2018-05-12T11:02:02.558Z,1004.84
2018-05-12T11:03:02.487Z,1004.85
2018-05-12T11:04:02.453Z,1004.82
2018-05-12T11:05:02.462Z,1004.84
2018-05-12T11:06:02.507Z,1004.78
2018-05-12T11:07:02.425Z,1004.79
2018-05-12T11:08:02.460Z,1004.76
2018-05-12T11:09:02.475Z,1004.73
2018-05-12T11:10:02.365Z,1004.75
2018-05-12T11:11:02.362Z,1004.72
2018-05-12T11:12:02.379Z,1004.70
2018-05-12T11:13:02.456Z,1004.69
2018-05-12T11:14:02.471Z,1004.68
2018-05-12T11:15:02.471Z,1004.63
2018-05-12T11:16:02.545Z,1004.66
2018-05-12T11:17:02.423Z,1004.61
2018-05-12T11:18:02.375Z,1004.61
2018-05-12T11:19:02.469Z,1004.61
2018-05-12T11:20:02.533Z,1004.61
2018-05-12T11:21:02.532Z,1004.64
2018-05-12T11:22:02.517Z,1004.60
2018-05-12T11:23:02.450Z,1004.59
2018-05-12T11:24:02.499Z,1004.57
2018-05-12T11:25:02.536Z,1004.61
2018-05-12T11:26:02.421Z,1004.51
2018-05-12T11:27:02.417Z,1004.52
2018-05-12T11:28:02.538Z,1004.49
2018-05-12T11:29:02.443Z,1004.49
2018-05-12T11:30:02.505Z,1004.48
2018-05-12T11:31:02.463Z,1004.41
2018-05-12T11:32:02.433Z,1004.44
2018-05-12T11:33:02.440Z,1004.35
2018-05-12T11:34:02.462Z,1004.43
2018-05-12T11:35:02.443Z,1004.38
2018-05-12T11:36:02.443Z,1004.36
2018-05-12T11:37:02.441Z,1004.34
2018-05-12T11:38:02.521Z,1004.36
2018-05-12T11:39:02.511Z,1004.34
2018-05-12T11:40:02.443Z,1004.37
2018-05-12T11:41:02.509Z,1004.37
2018-05-12T11:42:02.445Z,1004.34
2018-05-12T11:43:02.447Z,1004.36
2018-05-12T11:44:02.515Z,1004.33
2018-05-12T11:45:02.515Z,1004.32
2018-05-12T11:46:02.449Z,1004.31
2018-05-12T11:47:02.512Z,1004.34
2018-05-12T11:48:02.448Z,1004.31
2018-05-12T11:49:02.512Z,1004.28
2018-05-12T11:50:02.449Z,1004.30
2018-05-12T11:51:02.445Z,1004.30
2018-05-12T11:52:02.520Z,1004.28
2018-05-12T11:53:02.453Z,1004.24
2018-05-12T11:54:02.528Z,1004.23
2018-05-12T11:55:02.453Z,1004.26
2018-05-12T11:56:02.525Z,1004.24
2018-05-12T11:57:02.487Z,1004.25
2018-05-12T11:58:02.455Z,1004.25
2018-05-12T11:59:02.472Z,1004.23
2018-05-12T12:00:02.418Z,1004.22
2018-05-12T12:01:02.460Z,1004.17
2018-05-12T12:02:02.524Z,1004.19
2018-05-12T12:03:02.459Z,1004.21
2018-05-12T12:04:02.524Z,1004.19
2018-05-12T12:05:02.463Z,1004.12
2018-05-12T12:06:02.524Z,1004.08